Portada
METAR-TAF:

METAR-TAF

Aeroports :

Vanua Lava, Vanuatu

latitud: 13-51-06S, longitud: 167-32-13E, altitud: 2 m

Observació

L'informe es va fer fa 2 hores i 50 minuts, a les 09:00 UTC
Vent 2 kt amb direcció variable
Temperatura 29°C
Humitat 79%
Pressió 1006 hPa
Visibilitat 10 km o més
Escasses núvols a una alçada de 2000 ft

METAR: NVSC 250900Z VRB02KT 9999 FEW020 29/25 Q1006

Hora: 22:50 (11:50 UTC)

Pronòstic

L'informe es va fer fa 1 hora i 50 minuts, a les 10:00 UTC
Pronòstic vàlid del 25 a les 12 UTC al 26 a les 12 UTC
Vent 2 kt amb direcció variable
Visibilitat: 8000 m
Núvols disperses a una alçada de 2000 ft
Cel ennuvolat a una alçada de 1800 ft
Escasses núvols a una alçada de 2500 ft, Cumulonimbus.
tempesta, pluja

TAF: NVSC 251000Z 2512/2612 VRB02KT 9999 SCT020 INTER 2512/2518 8000 -TSRA BKN018 FEW025CB

Observacions i pronòstics meteorològics de més de 4000 aeroports (METAR i TAF).

Les estacions disponibles són els punts grocs i vermells al mapa.

Posi el ratolí al punt desitjat per veure el nom de l'estació.

Feu clic per veure les observacions i els pronòstics meteorològics.

Per canviar el mapa: feu clic els botons verds amb una creu de color negre per apropar; al botó verd amb un guió per allunyar la imatge; o en les fletxes verdes per a mapes adjacents.


METAR-TAF: